sensor_id;sensor_type;location;lat;lon;timestamp;P1;durP1;ratioP1;P2;durP2;ratioP2
67768;SDS011;54569;52.018;5.584;2023-07-13T00:00:37;4.45;;;1.90;;
67768;SDS011;54569;52.018;5.584;2023-07-13T00:03:03;6.40;;;1.92;;
67768;SDS011;54569;52.018;5.584;2023-07-13T00:05:29;6.78;;;2.13;;
67768;SDS011;54569;52.018;5.584;2023-07-13T00:07:56;7.00;;;1.90;;
67768;SDS011;54569;52.018;5.584;2023-07-13T00:10:21;7.45;;;1.65;;
67768;SDS011;54569;52.018;5.584;2023-07-13T00:12:47;4.43;;;1.77;;
67768;SDS011;54569;52.018;5.584;2023-07-13T00:15:15;4.38;;;1.88;;
67768;SDS011;54569;52.018;5.584;2023-07-13T00:17:49;9.63;;;1.88;;
67768;SDS011;54569;52.018;5.584;2023-07-13T00:20:20;9.50;;;2.15;;
67768;SDS011;54569;52.018;5.584;2023-07-13T00:22:47;4.63;;;2.08;;
67768;SDS011;54569;52.018;5.584;2023-07-13T00:25:14;6.38;;;2.00;;
67768;SDS011;54569;52.018;5.584;2023-07-13T00:27:42;7.70;;;2.10;;
67768;SDS011;54569;52.018;5.584;2023-07-13T00:30:09;7.70;;;1.98;;
67768;SDS011;54569;52.018;5.584;2023-07-13T00:32:35;4.68;;;1.83;;
67768;SDS011;54569;52.018;5.584;2023-07-13T00:35:01;5.15;;;2.17;;
67768;SDS011;54569;52.018;5.584;2023-07-13T00:37:30;5.20;;;1.85;;
67768;SDS011;54569;52.018;5.584;2023-07-13T00:39:56;4.28;;;1.67;;
67768;SDS011;54569;52.018;5.584;2023-07-13T00:42:22;5.95;;;2.08;;
67768;SDS011;54569;52.018;5.584;2023-07-13T00:45:01;3.55;;;2.00;;
67768;SDS011;54569;52.018;5.584;2023-07-13T00:47:36;6.18;;;2.00;;
67768;SDS011;54569;52.018;5.584;2023-07-13T00:50:02;7.13;;;2.25;;
67768;SDS011;54569;52.018;5.584;2023-07-13T00:52:31;6.43;;;2.30;;
67768;SDS011;54569;52.018;5.584;2023-07-13T00:54:58;8.38;;;2.38;;
67768;SDS011;54569;52.018;5.584;2023-07-13T00:57:24;9.80;;;2.35;;
67768;SDS011;54569;52.018;5.584;2023-07-13T00:59:52;7.07;;;2.20;;
67768;SDS011;54569;52.018;5.584;2023-07-13T01:02:23;6.35;;;1.85;;
67768;SDS011;54569;52.018;5.584;2023-07-13T01:04:50;5.68;;;2.00;;
67768;SDS011;54569;52.018;5.584;2023-07-13T01:07:16;5.10;;;1.95;;
67768;SDS011;54569;52.018;5.584;2023-07-13T01:09:44;5.15;;;2.00;;
67768;SDS011;54569;52.018;5.584;2023-07-13T01:12:10;5.22;;;2.00;;
67768;SDS011;54569;52.018;5.584;2023-07-13T01:14:37;6.95;;;2.20;;
67768;SDS011;54569;52.018;5.584;2023-07-13T01:17:02;4.50;;;2.15;;
67768;SDS011;54569;52.018;5.584;2023-07-13T01:19:33;5.13;;;1.90;;
67768;SDS011;54569;52.018;5.584;2023-07-13T01:22:08;4.55;;;1.70;;
67768;SDS011;54569;52.018;5.584;2023-07-13T01:24:37;5.05;;;2.00;;
67768;SDS011;54569;52.018;5.584;2023-07-13T01:27:04;7.38;;;1.73;;
67768;SDS011;54569;52.018;5.584;2023-07-13T01:29:35;5.90;;;1.85;;
67768;SDS011;54569;52.018;5.584;2023-07-13T01:32:15;5.57;;;1.80;;
67768;SDS011;54569;52.018;5.584;2023-07-13T01:34:47;4.85;;;2.08;;
67768;SDS011;54569;52.018;5.584;2023-07-13T01:37:16;4.57;;;1.77;;
67768;SDS011;54569;52.018;5.584;2023-07-13T01:39:42;4.10;;;1.70;;
67768;SDS011;54569;52.018;5.584;2023-07-13T01:42:08;6.00;;;1.95;;
67768;SDS011;54569;52.018;5.584;2023-07-13T01:44:34;4.75;;;2.00;;
67768;SDS011;54569;52.018;5.584;2023-07-13T01:47:00;6.97;;;2.08;;
67768;SDS011;54569;52.018;5.584;2023-07-13T01:49:26;8.43;;;2.10;;
67768;SDS011;54569;52.018;5.584;2023-07-13T01:51:52;3.85;;;1.55;;
67768;SDS011;54569;52.018;5.584;2023-07-13T01:54:18;6.10;;;2.08;;
67768;SDS011;54569;52.018;5.584;2023-07-13T01:56:43;4.70;;;1.55;;
67768;SDS011;54569;52.018;5.584;2023-07-13T01:59:10;11.10;;;2.00;;
67768;SDS011;54569;52.018;5.584;2023-07-13T02:01:36;5.50;;;1.80;;
67768;SDS011;54569;52.018;5.584;2023-07-13T02:04:02;6.70;;;2.10;;
67768;SDS011;54569;52.018;5.584;2023-07-13T02:06:32;7.85;;;2.10;;
67768;SDS011;54569;52.018;5.584;2023-07-13T02:09:00;4.47;;;1.70;;
67768;SDS011;54569;52.018;5.584;2023-07-13T02:11:26;4.20;;;1.73;;
67768;SDS011;54569;52.018;5.584;2023-07-13T02:13:59;7.50;;;2.08;;
67768;SDS011;54569;52.018;5.584;2023-07-13T02:16:26;7.35;;;2.30;;
67768;SDS011;54569;52.018;5.584;2023-07-13T02:18:52;7.55;;;2.08;;
67768;SDS011;54569;52.018;5.584;2023-07-13T02:21:20;7.60;;;2.17;;
67768;SDS011;54569;52.018;5.584;2023-07-13T02:23:46;7.80;;;2.20;;
67768;SDS011;54569;52.018;5.584;2023-07-13T02:26:13;7.68;;;2.10;;
67768;SDS011;54569;52.018;5.584;2023-07-13T02:28:39;7.70;;;2.50;;
67768;SDS011;54569;52.018;5.584;2023-07-13T02:31:10;7.47;;;2.47;;
67768;SDS011;54569;52.018;5.584;2023-07-13T02:33:37;7.28;;;2.42;;
67768;SDS011;54569;52.018;5.584;2023-07-13T02:36:03;5.30;;;2.35;;
67768;SDS011;54569;52.018;5.584;2023-07-13T02:38:30;8.48;;;2.65;;
67768;SDS011;54569;52.018;5.584;2023-07-13T02:41:01;8.40;;;2.78;;
67768;SDS011;54569;52.018;5.584;2023-07-13T02:43:27;8.40;;;2.60;;
67768;SDS011;54569;52.018;5.584;2023-07-13T02:45:53;6.93;;;2.95;;
67768;SDS011;54569;52.018;5.584;2023-07-13T02:48:19;6.40;;;2.78;;
67768;SDS011;54569;52.018;5.584;2023-07-13T02:50:45;10.75;;;2.80;;
67768;SDS011;54569;52.018;5.584;2023-07-13T02:53:11;8.30;;;2.63;;
67768;SDS011;54569;52.018;5.584;2023-07-13T02:55:37;7.78;;;2.20;;
67768;SDS011;54569;52.018;5.584;2023-07-13T02:58:03;9.40;;;2.50;;
67768;SDS011;54569;52.018;5.584;2023-07-13T03:00:31;7.20;;;2.50;;
67768;SDS011;54569;52.018;5.584;2023-07-13T03:02:56;5.88;;;2.85;;
67768;SDS011;54569;52.018;5.584;2023-07-13T03:05:23;5.63;;;2.30;;
67768;SDS011;54569;52.018;5.584;2023-07-13T03:07:49;9.80;;;2.85;;
67768;SDS011;54569;52.018;5.584;2023-07-13T03:10:15;9.15;;;2.53;;
67768;SDS011;54569;52.018;5.584;2023-07-13T03:12:46;3.83;;;2.50;;
67768;SDS011;54569;52.018;5.584;2023-07-13T03:15:20;10.77;;;2.80;;
67768;SDS011;54569;52.018;5.584;2023-07-13T03:17:48;6.88;;;2.60;;
67768;SDS011;54569;52.018;5.584;2023-07-13T03:20:14;7.40;;;2.58;;
67768;SDS011;54569;52.018;5.584;2023-07-13T03:22:40;10.90;;;2.78;;
67768;SDS011;54569;52.018;5.584;2023-07-13T03:25:07;7.10;;;2.67;;
67768;SDS011;54569;52.018;5.584;2023-07-13T03:27:33;11.95;;;3.15;;
67768;SDS011;54569;52.018;5.584;2023-07-13T03:29:59;8.70;;;3.15;;
67768;SDS011;54569;52.018;5.584;2023-07-13T03:32:25;11.43;;;3.05;;
67768;SDS011;54569;52.018;5.584;2023-07-13T03:34:52;5.93;;;2.67;;
67768;SDS011;54569;52.018;5.584;2023-07-13T03:37:18;13.35;;;3.15;;
67768;SDS011;54569;52.018;5.584;2023-07-13T03:39:44;8.05;;;2.88;;
67768;SDS011;54569;52.018;5.584;2023-07-13T03:42:11;9.15;;;3.00;;
67768;SDS011;54569;52.018;5.584;2023-07-13T03:44:39;12.13;;;3.08;;
67768;SDS011;54569;52.018;5.584;2023-07-13T03:47:06;11.40;;;3.25;;
67768;SDS011;54569;52.018;5.584;2023-07-13T03:49:34;9.55;;;2.85;;
67768;SDS011;54569;52.018;5.584;2023-07-13T03:52:00;10.00;;;3.15;;
67768;SDS011;54569;52.018;5.584;2023-07-13T03:54:26;10.50;;;2.95;;
67768;SDS011;54569;52.018;5.584;2023-07-13T03:56:52;9.73;;;2.88;;
67768;SDS011;54569;52.018;5.584;2023-07-13T03:59:20;12.73;;;3.20;;
67768;SDS011;54569;52.018;5.584;2023-07-13T04:01:46;8.75;;;2.78;;
67768;SDS011;54569;52.018;5.584;2023-07-13T04:04:12;10.40;;;3.28;;
67768;SDS011;54569;52.018;5.584;2023-07-13T04:06:38;8.27;;;2.97;;
67768;SDS011;54569;52.018;5.584;2023-07-13T04:09:04;9.57;;;3.88;;
67768;SDS011;54569;52.018;5.584;2023-07-13T04:11:35;12.98;;;3.88;;
67768;SDS011;54569;52.018;5.584;2023-07-13T04:14:05;11.20;;;3.88;;
67768;SDS011;54569;52.018;5.584;2023-07-13T04:16:32;9.93;;;3.05;;
67768;SDS011;54569;52.018;5.584;2023-07-13T04:18:58;6.25;;;3.45;;
67768;SDS011;54569;52.018;5.584;2023-07-13T04:21:25;10.73;;;4.05;;
67768;SDS011;54569;52.018;5.584;2023-07-13T04:23:52;10.60;;;4.10;;
67768;SDS011;54569;52.018;5.584;2023-07-13T04:26:17;11.98;;;3.50;;
67768;SDS011;54569;52.018;5.584;2023-07-13T04:28:46;11.65;;;3.67;;
67768;SDS011;54569;52.018;5.584;2023-07-13T04:31:13;9.48;;;3.72;;
67768;SDS011;54569;52.018;5.584;2023-07-13T04:33:39;13.93;;;3.92;;
67768;SDS011;54569;52.018;5.584;2023-07-13T04:36:04;16.25;;;4.03;;
67768;SDS011;54569;52.018;5.584;2023-07-13T04:38:31;11.10;;;4.53;;
67768;SDS011;54569;52.018;5.584;2023-07-13T04:40:59;10.60;;;4.68;;
67768;SDS011;54569;52.018;5.584;2023-07-13T04:43:26;12.20;;;4.35;;
67768;SDS011;54569;52.018;5.584;2023-07-13T04:45:53;15.68;;;4.50;;
67768;SDS011;54569;52.018;5.584;2023-07-13T04:48:20;11.60;;;4.72;;
67768;SDS011;54569;52.018;5.584;2023-07-13T04:50:46;14.20;;;5.30;;
67768;SDS011;54569;52.018;5.584;2023-07-13T04:53:13;13.65;;;4.90;;
67768;SDS011;54569;52.018;5.584;2023-07-13T04:55:39;14.65;;;4.57;;
67768;SDS011;54569;52.018;5.584;2023-07-13T04:58:06;13.38;;;5.15;;
67768;SDS011;54569;52.018;5.584;2023-07-13T05:00:31;14.45;;;4.53;;
67768;SDS011;54569;52.018;5.584;2023-07-13T05:02:57;16.10;;;5.43;;
67768;SDS011;54569;52.018;5.584;2023-07-13T05:05:24;12.80;;;4.63;;
67768;SDS011;54569;52.018;5.584;2023-07-13T05:07:52;11.95;;;5.07;;
67768;SDS011;54569;52.018;5.584;2023-07-13T05:10:18;17.63;;;5.20;;
67768;SDS011;54569;52.018;5.584;2023-07-13T05:12:44;10.20;;;4.65;;
67768;SDS011;54569;52.018;5.584;2023-07-13T05:15:10;15.05;;;4.95;;
67768;SDS011;54569;52.018;5.584;2023-07-13T05:17:36;15.68;;;5.82;;
67768;SDS011;54569;52.018;5.584;2023-07-13T05:20:04;13.27;;;5.63;;
67768;SDS011;54569;52.018;5.584;2023-07-13T05:22:31;17.77;;;5.93;;
67768;SDS011;54569;52.018;5.584;2023-07-13T05:24:56;14.93;;;6.07;;
67768;SDS011;54569;52.018;5.584;2023-07-13T05:27:22;14.27;;;6.85;;
67768;SDS011;54569;52.018;5.584;2023-07-13T05:29:49;17.25;;;5.90;;
67768;SDS011;54569;52.018;5.584;2023-07-13T05:32:15;16.70;;;6.20;;
67768;SDS011;54569;52.018;5.584;2023-07-13T05:34:40;17.80;;;6.57;;
67768;SDS011;54569;52.018;5.584;2023-07-13T05:37:07;14.30;;;6.45;;
67768;SDS011;54569;52.018;5.584;2023-07-13T05:39:33;13.02;;;6.22;;
67768;SDS011;54569;52.018;5.584;2023-07-13T05:41:59;16.23;;;6.95;;
67768;SDS011;54569;52.018;5.584;2023-07-13T05:44:27;19.55;;;6.72;;
67768;SDS011;54569;52.018;5.584;2023-07-13T05:46:53;12.60;;;6.85;;
67768;SDS011;54569;52.018;5.584;2023-07-13T05:49:20;18.27;;;6.88;;
67768;SDS011;54569;52.018;5.584;2023-07-13T05:51:45;20.20;;;8.25;;
67768;SDS011;54569;52.018;5.584;2023-07-13T05:54:11;17.52;;;8.32;;
67768;SDS011;54569;52.018;5.584;2023-07-13T05:56:37;14.43;;;7.82;;
67768;SDS011;54569;52.018;5.584;2023-07-13T05:59:03;18.95;;;8.48;;
67768;SDS011;54569;52.018;5.584;2023-07-13T06:01:29;16.42;;;8.05;;
67768;SDS011;54569;52.018;5.584;2023-07-13T06:03:55;18.40;;;8.15;;
67768;SDS011;54569;52.018;5.584;2023-07-13T06:06:21;19.23;;;8.65;;
67768;SDS011;54569;52.018;5.584;2023-07-13T06:08:46;24.90;;;9.43;;
67768;SDS011;54569;52.018;5.584;2023-07-13T06:11:17;18.23;;;9.00;;
67768;SDS011;54569;52.018;5.584;2023-07-13T06:13:47;22.13;;;9.38;;
67768;SDS011;54569;52.018;5.584;2023-07-13T06:16:13;16.70;;;9.50;;
67768;SDS011;54569;52.018;5.584;2023-07-13T06:18:40;26.25;;;10.80;;
67768;SDS011;54569;52.018;5.584;2023-07-13T06:21:11;19.75;;;10.82;;
67768;SDS011;54569;52.018;5.584;2023-07-13T06:23:38;21.00;;;10.32;;
67768;SDS011;54569;52.018;5.584;2023-07-13T06:26:04;22.63;;;11.57;;
67768;SDS011;54569;52.018;5.584;2023-07-13T06:28:31;20.30;;;10.38;;
67768;SDS011;54569;52.018;5.584;2023-07-13T06:30:58;21.92;;;11.32;;
67768;SDS011;54569;52.018;5.584;2023-07-13T06:33:25;23.88;;;11.98;;
67768;SDS011;54569;52.018;5.584;2023-07-13T06:35:51;17.92;;;11.10;;
67768;SDS011;54569;52.018;5.584;2023-07-13T06:38:18;27.00;;;10.57;;
67768;SDS011;54569;52.018;5.584;2023-07-13T06:40:43;20.08;;;11.70;;
67768;SDS011;54569;52.018;5.584;2023-07-13T06:43:09;21.83;;;12.23;;
67768;SDS011;54569;52.018;5.584;2023-07-13T06:45:39;23.02;;;11.98;;
67768;SDS011;54569;52.018;5.584;2023-07-13T06:48:07;19.65;;;10.88;;
67768;SDS011;54569;52.018;5.584;2023-07-13T06:50:33;19.50;;;11.27;;
67768;SDS011;54569;52.018;5.584;2023-07-13T06:52:59;20.77;;;12.02;;
67768;SDS011;54569;52.018;5.584;2023-07-13T06:55:25;20.85;;;10.90;;
67768;SDS011;54569;52.018;5.584;2023-07-13T06:57:51;22.27;;;11.70;;
67768;SDS011;54569;52.018;5.584;2023-07-13T07:00:17;26.52;;;12.07;;
67768;SDS011;54569;52.018;5.584;2023-07-13T07:02:43;22.33;;;11.57;;
67768;SDS011;54569;52.018;5.584;2023-07-13T07:05:09;25.30;;;11.95;;
67768;SDS011;54569;52.018;5.584;2023-07-13T07:07:35;19.55;;;11.80;;
67768;SDS011;54569;52.018;5.584;2023-07-13T07:10:00;19.35;;;11.48;;
67768;SDS011;54569;52.018;5.584;2023-07-13T07:12:26;17.98;;;11.45;;
67768;SDS011;54569;52.018;5.584;2023-07-13T07:14:53;19.88;;;11.43;;
67768;SDS011;54569;52.018;5.584;2023-07-13T07:17:19;20.55;;;11.02;;
67768;SDS011;54569;52.018;5.584;2023-07-13T07:19:45;20.15;;;13.13;;
67768;SDS011;54569;52.018;5.584;2023-07-13T07:22:11;21.35;;;12.40;;
67768;SDS011;54569;52.018;5.584;2023-07-13T07:24:36;18.67;;;11.95;;
67768;SDS011;54569;52.018;5.584;2023-07-13T07:27:03;19.48;;;11.77;;
67768;SDS011;54569;52.018;5.584;2023-07-13T07:29:29;24.77;;;12.35;;
67768;SDS011;54569;52.018;5.584;2023-07-13T07:31:55;19.15;;;11.55;;
67768;SDS011;54569;52.018;5.584;2023-07-13T07:34:20;17.42;;;11.05;;
67768;SDS011;54569;52.018;5.584;2023-07-13T07:36:46;18.10;;;11.48;;
67768;SDS011;54569;52.018;5.584;2023-07-13T07:39:12;19.13;;;10.90;;
67768;SDS011;54569;52.018;5.584;2023-07-13T07:41:38;19.58;;;11.35;;
67768;SDS011;54569;52.018;5.584;2023-07-13T07:44:04;14.90;;;9.65;;
67768;SDS011;54569;52.018;5.584;2023-07-13T07:46:32;18.67;;;11.05;;
67768;SDS011;54569;52.018;5.584;2023-07-13T07:48:58;17.63;;;10.77;;
67768;SDS011;54569;52.018;5.584;2023-07-13T07:51:23;19.67;;;11.30;;
67768;SDS011;54569;52.018;5.584;2023-07-13T07:53:49;16.35;;;11.10;;
67768;SDS011;54569;52.018;5.584;2023-07-13T07:56:15;20.10;;;12.00;;
67768;SDS011;54569;52.018;5.584;2023-07-13T07:58:41;18.65;;;10.68;;
67768;SDS011;54569;52.018;5.584;2023-07-13T08:01:07;17.30;;;11.43;;
67768;SDS011;54569;52.018;5.584;2023-07-13T08:03:34;21.25;;;11.55;;
67768;SDS011;54569;52.018;5.584;2023-07-13T08:05:59;19.08;;;10.90;;
67768;SDS011;54569;52.018;5.584;2023-07-13T08:08:25;23.42;;;11.30;;
67768;SDS011;54569;52.018;5.584;2023-07-13T08:10:51;17.65;;;11.40;;
67768;SDS011;54569;52.018;5.584;2023-07-13T08:13:18;14.43;;;9.98;;
67768;SDS011;54569;52.018;5.584;2023-07-13T08:15:43;19.92;;;9.88;;
67768;SDS011;54569;52.018;5.584;2023-07-13T08:18:10;14.80;;;9.15;;
67768;SDS011;54569;52.018;5.584;2023-07-13T08:20:39;15.82;;;9.52;;
67768;SDS011;54569;52.018;5.584;2023-07-13T08:23:05;12.70;;;8.38;;
67768;SDS011;54569;52.018;5.584;2023-07-13T08:25:31;21.98;;;9.07;;
67768;SDS011;54569;52.018;5.584;2023-07-13T08:27:57;13.80;;;8.57;;
67768;SDS011;54569;52.018;5.584;2023-07-13T08:30:23;16.40;;;8.23;;
67768;SDS011;54569;52.018;5.584;2023-07-13T08:32:49;10.02;;;8.18;;
67768;SDS011;54569;52.018;5.584;2023-07-13T08:35:15;13.88;;;8.20;;
67768;SDS011;54569;52.018;5.584;2023-07-13T08:37:42;10.90;;;6.55;;
67768;SDS011;54569;52.018;5.584;2023-07-13T08:40:08;12.95;;;6.30;;
67768;SDS011;54569;52.018;5.584;2023-07-13T08:42:50;14.70;;;6.65;;
67768;SDS011;54569;52.018;5.584;2023-07-13T08:45:22;9.90;;;5.78;;
67768;SDS011;54569;52.018;5.584;2023-07-13T08:48:13;9.15;;;4.75;;
67768;SDS011;54569;52.018;5.584;2023-07-13T08:51:04;7.30;;;4.10;;
67768;SDS011;54569;52.018;5.584;2023-07-13T08:53:38;6.35;;;3.90;;
67768;SDS011;54569;52.018;5.584;2023-07-13T08:56:09;8.38;;;3.25;;
67768;SDS011;54569;52.018;5.584;2023-07-13T08:58:43;7.30;;;2.70;;
67768;SDS011;54569;52.018;5.584;2023-07-13T09:12:01;6.32;;;3.47;;
67768;SDS011;54569;52.018;5.584;2023-07-13T09:14:45;8.02;;;3.70;;
67768;SDS011;54569;52.018;5.584;2023-07-13T09:19:45;7.38;;;3.83;;
67768;SDS011;54569;52.018;5.584;2023-07-13T09:22:16;5.00;;;3.03;;
67768;SDS011;54569;52.018;5.584;2023-07-13T09:25:02;3.95;;;2.67;;
67768;SDS011;54569;52.018;5.584;2023-07-13T09:27:39;3.13;;;2.22;;
67768;SDS011;54569;52.018;5.584;2023-07-13T09:32:42;7.45;;;3.00;;
67768;SDS011;54569;52.018;5.584;2023-07-13T09:35:16;4.68;;;2.70;;
67768;SDS011;54569;52.018;5.584;2023-07-13T09:37:44;6.15;;;2.60;;
67768;SDS011;54569;52.018;5.584;2023-07-13T09:40:14;6.20;;;2.85;;
67768;SDS011;54569;52.018;5.584;2023-07-13T09:42:48;6.45;;;2.63;;
67768;SDS011;54569;52.018;5.584;2023-07-13T09:45:17;7.00;;;3.13;;
67768;SDS011;54569;52.018;5.584;2023-07-13T09:47:58;8.77;;;3.90;;
67768;SDS011;54569;52.018;5.584;2023-07-13T09:50:28;4.18;;;3.38;;
67768;SDS011;54569;52.018;5.584;2023-07-13T09:52:54;9.40;;;3.72;;
67768;SDS011;54569;52.018;5.584;2023-07-13T09:55:29;9.02;;;4.00;;
67768;SDS011;54569;52.018;5.584;2023-07-13T09:58:16;10.55;;;3.85;;
67768;SDS011;54569;52.018;5.584;2023-07-13T10:00:43;11.55;;;4.10;;
67768;SDS011;54569;52.018;5.584;2023-07-13T10:05:53;7.93;;;3.30;;
67768;SDS011;54569;52.018;5.584;2023-07-13T10:08:26;14.02;;;4.57;;
67768;SDS011;54569;52.018;5.584;2023-07-13T10:11:00;8.77;;;3.80;;
67768;SDS011;54569;52.018;5.584;2023-07-13T10:15:56;6.25;;;3.70;;
67768;SDS011;54569;52.018;5.584;2023-07-13T10:18:24;7.63;;;4.07;;
67768;SDS011;54569;52.018;5.584;2023-07-13T10:20:58;9.38;;;4.00;;
67768;SDS011;54569;52.018;5.584;2023-07-13T10:23:35;6.47;;;3.80;;
67768;SDS011;54569;52.018;5.584;2023-07-13T10:26:02;6.57;;;3.60;;
67768;SDS011;54569;52.018;5.584;2023-07-13T10:28:30;8.50;;;3.47;;
67768;SDS011;54569;52.018;5.584;2023-07-13T10:31:01;6.80;;;3.30;;
67768;SDS011;54569;52.018;5.584;2023-07-13T10:33:27;7.72;;;3.13;;
67768;SDS011;54569;52.018;5.584;2023-07-13T10:36:16;5.15;;;3.28;;
67768;SDS011;54569;52.018;5.584;2023-07-13T10:38:42;4.38;;;2.65;;
67768;SDS011;54569;52.018;5.584;2023-07-13T10:41:15;5.63;;;2.40;;
67768;SDS011;54569;52.018;5.584;2023-07-13T10:43:46;10.63;;;2.40;;
67768;SDS011;54569;52.018;5.584;2023-07-13T10:46:17;8.07;;;2.78;;
67768;SDS011;54569;52.018;5.584;2023-07-13T10:48:49;5.10;;;2.38;;
67768;SDS011;54569;52.018;5.584;2023-07-13T10:51:19;6.30;;;2.47;;
67768;SDS011;54569;52.018;5.584;2023-07-13T10:53:46;3.85;;;2.25;;
67768;SDS011;54569;52.018;5.584;2023-07-13T10:56:22;4.55;;;2.17;;
67768;SDS011;54569;52.018;5.584;2023-07-13T11:01:49;7.07;;;3.33;;
67768;SDS011;54569;52.018;5.584;2023-07-13T11:04:28;4.68;;;3.05;;
67768;SDS011;54569;52.018;5.584;2023-07-13T11:07:10;8.23;;;3.30;;
67768;SDS011;54569;52.018;5.584;2023-07-13T11:09:43;4.43;;;3.03;;
67768;SDS011;54569;52.018;5.584;2023-07-13T11:20:48;5.78;;;2.75;;
67768;SDS011;54569;52.018;5.584;2023-07-13T11:25:41;3.85;;;2.30;;
67768;SDS011;54569;52.018;5.584;2023-07-13T11:30:37;3.70;;;2.20;;
67768;SDS011;54569;52.018;5.584;2023-07-13T11:38:38;4.93;;;2.67;;
67768;SDS011;54569;52.018;5.584;2023-07-13T11:41:05;5.57;;;2.65;;
67768;SDS011;54569;52.018;5.584;2023-07-13T11:43:39;5.85;;;2.58;;
67768;SDS011;54569;52.018;5.584;2023-07-13T11:46:12;8.68;;;3.10;;
67768;SDS011;54569;52.018;5.584;2023-07-13T11:48:40;5.95;;;2.67;;
67768;SDS011;54569;52.018;5.584;2023-07-13T11:51:06;5.50;;;2.55;;
67768;SDS011;54569;52.018;5.584;2023-07-13T11:53:43;3.03;;;2.03;;
67768;SDS011;54569;52.018;5.584;2023-07-13T11:56:11;4.72;;;2.33;;
67768;SDS011;54569;52.018;5.584;2023-07-13T11:58:37;8.50;;;2.72;;
67768;SDS011;54569;52.018;5.584;2023-07-13T12:01:03;6.00;;;2.80;;
67768;SDS011;54569;52.018;5.584;2023-07-13T12:03:30;5.93;;;2.80;;
67768;SDS011;54569;52.018;5.584;2023-07-13T12:06:05;5.88;;;3.13;;
67768;SDS011;54569;52.018;5.584;2023-07-13T12:08:44;3.97;;;2.83;;
67768;SDS011;54569;52.018;5.584;2023-07-13T12:11:17;7.22;;;3.20;;
67768;SDS011;54569;52.018;5.584;2023-07-13T12:13:44;5.13;;;2.42;;
67768;SDS011;54569;52.018;5.584;2023-07-13T12:16:17;3.20;;;2.42;;
67768;SDS011;54569;52.018;5.584;2023-07-13T12:18:57;5.80;;;2.28;;
67768;SDS011;54569;52.018;5.584;2023-07-13T12:21:32;7.72;;;3.13;;
67768;SDS011;54569;52.018;5.584;2023-07-13T12:24:01;3.88;;;2.70;;
67768;SDS011;54569;52.018;5.584;2023-07-13T12:26:29;3.42;;;2.55;;
67768;SDS011;54569;52.018;5.584;2023-07-13T12:28:56;4.43;;;2.63;;
67768;SDS011;54569;52.018;5.584;2023-07-13T12:34:01;3.92;;;2.15;;
67768;SDS011;54569;52.018;5.584;2023-07-13T12:36:38;3.17;;;2.33;;
67768;SDS011;54569;52.018;5.584;2023-07-13T12:39:28;4.57;;;2.33;;
67768;SDS011;54569;52.018;5.584;2023-07-13T12:45:19;3.13;;;2.40;;
67768;SDS011;54569;52.018;5.584;2023-07-13T12:47:53;3.07;;;2.50;;
67768;SDS011;54569;52.018;5.584;2023-07-13T12:50:21;2.42;;;2.22;;
67768;SDS011;54569;52.018;5.584;2023-07-13T12:52:57;3.88;;;2.17;;
67768;SDS011;54569;52.018;5.584;2023-07-13T12:55:39;3.53;;;2.70;;
67768;SDS011;54569;52.018;5.584;2023-07-13T12:58:26;5.45;;;2.65;;
67768;SDS011;54569;52.018;5.584;2023-07-13T13:00:54;3.30;;;2.40;;
67768;SDS011;54569;52.018;5.584;2023-07-13T13:08:43;3.60;;;1.98;;
67768;SDS011;54569;52.018;5.584;2023-07-13T13:11:11;3.60;;;2.08;;
67768;SDS011;54569;52.018;5.584;2023-07-13T13:13:41;5.60;;;2.40;;
67768;SDS011;54569;52.018;5.584;2023-07-13T13:18:50;4.07;;;2.90;;
67768;SDS011;54569;52.018;5.584;2023-07-13T13:21:18;4.13;;;2.75;;
67768;SDS011;54569;52.018;5.584;2023-07-13T13:23:45;4.00;;;2.55;;
67768;SDS011;54569;52.018;5.584;2023-07-13T13:26:12;3.72;;;2.15;;
67768;SDS011;54569;52.018;5.584;2023-07-13T13:28:41;4.60;;;2.53;;
67768;SDS011;54569;52.018;5.584;2023-07-13T13:31:09;4.22;;;2.50;;
67768;SDS011;54569;52.018;5.584;2023-07-13T13:33:37;4.22;;;2.35;;
67768;SDS011;54569;52.018;5.584;2023-07-13T13:36:18;5.03;;;2.50;;
67768;SDS011;54569;52.018;5.584;2023-07-13T13:38:45;5.97;;;2.45;;
67768;SDS011;54569;52.018;5.584;2023-07-13T13:41:13;2.72;;;2.53;;
67768;SDS011;54569;52.018;5.584;2023-07-13T13:43:40;4.32;;;2.10;;
67768;SDS011;54569;52.018;5.584;2023-07-13T13:46:18;4.28;;;2.40;;
67768;SDS011;54569;52.018;5.584;2023-07-13T13:48:47;7.95;;;2.92;;
67768;SDS011;54569;52.018;5.584;2023-07-13T13:51:20;5.07;;;2.70;;
67768;SDS011;54569;52.018;5.584;2023-07-13T13:53:49;3.28;;;2.30;;
67768;SDS011;54569;52.018;5.584;2023-07-13T13:56:15;4.25;;;2.10;;
67768;SDS011;54569;52.018;5.584;2023-07-13T13:58:43;6.70;;;2.90;;
67768;SDS011;54569;52.018;5.584;2023-07-13T14:01:12;3.40;;;2.40;;
67768;SDS011;54569;52.018;5.584;2023-07-13T14:03:44;3.63;;;2.10;;
67768;SDS011;54569;52.018;5.584;2023-07-13T14:06:13;4.47;;;2.42;;
67768;SDS011;54569;52.018;5.584;2023-07-13T14:08:40;4.80;;;2.45;;
67768;SDS011;54569;52.018;5.584;2023-07-13T14:11:09;3.80;;;1.90;;
67768;SDS011;54569;52.018;5.584;2023-07-13T14:13:50;6.57;;;2.40;;
67768;SDS011;54569;52.018;5.584;2023-07-13T14:16:18;4.53;;;2.33;;
67768;SDS011;54569;52.018;5.584;2023-07-13T14:18:47;4.32;;;2.35;;
67768;SDS011;54569;52.018;5.584;2023-07-13T14:21:14;3.28;;;2.20;;
67768;SDS011;54569;52.018;5.584;2023-07-13T14:23:42;3.58;;;2.53;;
67768;SDS011;54569;52.018;5.584;2023-07-13T14:26:14;2.80;;;2.45;;
67768;SDS011;54569;52.018;5.584;2023-07-13T14:28:45;2.60;;;2.15;;
67768;SDS011;54569;52.018;5.584;2023-07-13T14:31:21;3.40;;;2.28;;
67768;SDS011;54569;52.018;5.584;2023-07-13T14:33:51;5.13;;;2.25;;
67768;SDS011;54569;52.018;5.584;2023-07-13T14:39:11;3.83;;;2.40;;
67768;SDS011;54569;52.018;5.584;2023-07-13T14:41:37;4.40;;;2.47;;
67768;SDS011;54569;52.018;5.584;2023-07-13T14:44:16;3.88;;;2.40;;
67768;SDS011;54569;52.018;5.584;2023-07-13T14:46:43;3.33;;;2.25;;
67768;SDS011;54569;52.018;5.584;2023-07-13T14:51:50;2.67;;;2.25;;
67768;SDS011;54569;52.018;5.584;2023-07-13T14:54:16;2.47;;;2.15;;
67768;SDS011;54569;52.018;5.584;2023-07-13T14:56:41;4.03;;;2.10;;
67768;SDS011;54569;52.018;5.584;2023-07-13T14:59:07;2.80;;;2.25;;
67768;SDS011;54569;52.018;5.584;2023-07-13T15:01:34;2.75;;;2.08;;
67768;SDS011;54569;52.018;5.584;2023-07-13T15:04:01;2.35;;;2.15;;
67768;SDS011;54569;52.018;5.584;2023-07-13T15:06:27;2.85;;;2.13;;
67768;SDS011;54569;52.018;5.584;2023-07-13T15:08:54;2.78;;;2.17;;
67768;SDS011;54569;52.018;5.584;2023-07-13T15:11:20;2.60;;;2.05;;
67768;SDS011;54569;52.018;5.584;2023-07-13T15:13:47;2.58;;;2.33;;
67768;SDS011;54569;52.018;5.584;2023-07-13T15:16:15;3.05;;;2.40;;
67768;SDS011;54569;52.018;5.584;2023-07-13T15:18:46;7.60;;;2.20;;
67768;SDS011;54569;52.018;5.584;2023-07-13T15:21:22;3.63;;;2.38;;
67768;SDS011;54569;52.018;5.584;2023-07-13T15:23:50;3.90;;;2.03;;
67768;SDS011;54569;52.018;5.584;2023-07-13T15:26:16;4.47;;;2.20;;
67768;SDS011;54569;52.018;5.584;2023-07-13T15:28:44;3.80;;;2.10;;
67768;SDS011;54569;52.018;5.584;2023-07-13T15:31:21;2.95;;;2.10;;
67768;SDS011;54569;52.018;5.584;2023-07-13T15:33:52;2.78;;;1.88;;
67768;SDS011;54569;52.018;5.584;2023-07-13T15:36:20;3.95;;;1.60;;
67768;SDS011;54569;52.018;5.584;2023-07-13T15:38:46;3.00;;;1.70;;
67768;SDS011;54569;52.018;5.584;2023-07-13T15:41:21;4.22;;;2.00;;
67768;SDS011;54569;52.018;5.584;2023-07-13T15:43:49;4.10;;;1.63;;
67768;SDS011;54569;52.018;5.584;2023-07-13T15:46:17;2.40;;;1.70;;
67768;SDS011;54569;52.018;5.584;2023-07-13T15:48:46;3.13;;;1.85;;
67768;SDS011;54569;52.018;5.584;2023-07-13T15:51:20;2.33;;;1.50;;